Time;durP1;ratioP1;P1;durP2;ratioP2;P2;SDS_P1;SDS_P2;PMS_P1;PMS_P2;Temp;Humidity;BMP_temperature;BMP_pressure;BME280_temperature;BME280_humidity;BME280_pressure;Samples;Min_cycle;Max_cycle;Signal;HPM_P1;HPM_P2
2021/12/21 00:00:14;;;;;;;1.38;0.82;;;20.50;48.70;;;;;;6120997;29;20067;-72
2021/12/21 00:03:15;;;;;;;2.05;1.27;;;20.50;48.70;;;;;;6139861;28;20402;-73
2021/12/21 00:06:15;;;;;;;1.90;1.00;;;20.50;48.70;;;;;;6172119;28;20272;-73
2021/12/21 00:09:16;;;;;;;1.38;1.13;;;20.50;48.70;;;;;;6172215;28;20030;-73
2021/12/21 00:12:19;;;;;;;1.50;1.13;;;20.50;48.80;;;;;;6172232;28;20602;-73
2021/12/21 00:15:24;;;;;;;1.27;1.10;;;20.50;48.70;;;;;;6172450;28;20093;-72
2021/12/21 00:18:33;;;;;;;1.27;1.00;;;20.50;48.70;;;;;;6171881;28;20034;-72
2021/12/21 00:21:43;;;;;;;1.58;0.90;;;20.50;48.70;;;;;;6172736;28;20030;-73
2021/12/21 00:24:47;;;;;;;1.85;1.25;;;20.50;48.70;;;;;;6171225;28;20045;-73
2021/12/21 00:27:51;;;;;;;2.75;1.30;;;20.50;48.70;;;;;;6171811;28;20027;-73
2021/12/21 00:30:52;;;;;;;1.25;1.02;;;20.50;48.70;;;;;;6159834;28;20054;-73
2021/12/21 00:33:54;;;;;;;1.88;1.15;;;20.50;48.70;;;;;;6143769;28;20027;-72
2021/12/21 00:36:54;;;;;;;1.80;1.17;;;20.50;48.70;;;;;;6167089;28;20366;-72
2021/12/21 00:39:55;;;;;;;1.50;1.17;;;20.50;48.70;;;;;;6167430;28;20024;-73
2021/12/21 00:42:55;;;;;;;1.80;1.25;;;20.50;48.70;;;;;;6147625;28;20035;-73
2021/12/21 00:45:56;;;;;;;1.75;1.25;;;20.50;48.70;;;;;;6169275;28;20427;-73
2021/12/21 00:49:01;;;;;;;1.83;1.27;;;20.50;48.70;;;;;;6167737;28;20262;-73
2021/12/21 00:52:02;;;;;;;;;;;20.40;48.70;;;;;;6171203;28;20027;-72
2021/12/21 00:55:03;;;;;;;1.60;1.10;;;20.50;48.70;;;;;;6171524;28;19913;-73
2021/12/21 00:58:04;;;;;;;1.20;0.95;;;20.40;48.60;;;;;;6170199;28;20055;-73
2021/12/21 01:01:06;;;;;;;1.23;0.90;;;20.40;48.70;;;;;;6165783;28;20088;-72
2021/12/21 01:04:16;;;;;;;1.30;1.00;;;20.40;48.70;;;;;;6167717;28;20432;-72
2021/12/21 01:07:26;;;;;;;1.55;1.15;;;20.40;48.60;;;;;;6170351;28;20030;-72
2021/12/21 01:10:50;;;;;;;1.35;1.15;;;20.40;48.70;;;;;;6169913;28;20163;-72
2021/12/21 01:14:05;;;;;;;1.63;1.20;;;20.40;48.70;;;;;;6170439;28;20062;-72
2021/12/21 01:17:14;;;;;;;1.00;0.90;;;20.40;48.60;;;;;;6170465;28;20023;-72
2021/12/21 01:20:30;;;;;;;1.50;1.10;;;20.40;48.70;;;;;;6168031;28;20034;-72
2021/12/21 01:26:47;;;;;;;1.33;1.00;;;20.40;48.70;;;;;;6170789;28;19911;-73
2021/12/21 01:33:13;;;;;;;1.73;0.95;;;20.40;48.70;;;;;;6153226;28;20105;-72
2021/12/21 01:36:23;;;;;;;1.05;0.90;;;20.40;48.70;;;;;;6170363;28;20062;-72
2021/12/21 01:39:54;;;;;;;1.98;1.10;;;20.40;48.60;;;;;;6169994;28;20042;-72
2021/12/21 01:49:40;;;;;;;1.67;1.10;;;20.40;48.70;;;;;;6169787;28;20110;-72
2021/12/21 01:52:40;;;;;;;1.45;0.80;;;20.40;48.70;;;;;;6169108;28;20022;-73
2021/12/21 01:55:42;;;;;;;1.20;0.90;;;20.40;48.70;;;;;;6169597;28;20031;-73
2021/12/21 01:58:43;;;;;;;1.63;1.17;;;20.40;48.70;;;;;;6169024;28;20046;-72
2021/12/21 02:01:44;;;;;;;1.77;1.10;;;20.40;48.70;;;;;;6169297;28;20591;-72
2021/12/21 02:04:44;;;;;;;1.13;1.00;;;20.40;48.60;;;;;;6152668;28;20043;-72
2021/12/21 02:07:45;;;;;;;1.98;1.30;;;20.40;48.60;;;;;;6145556;28;20027;-73
2021/12/21 02:10:45;;;;;;;1.55;0.90;;;20.40;48.70;;;;;;6169333;28;20106;-72
2021/12/21 02:13:49;;;;;;;0.85;0.75;;;20.40;48.70;;;;;;6168583;28;20465;-72
2021/12/21 02:20:21;;;;;;;1.58;1.02;;;20.40;48.60;;;;;;6168826;28;20055;-73
2021/12/21 02:23:37;;;;;;;1.35;0.90;;;20.40;48.60;;;;;;6168358;28;20038;-72
2021/12/21 02:26:44;;;;;;;1.48;0.85;;;20.40;48.90;;;;;;6169116;28;20027;-73
2021/12/21 02:29:44;;;;;;;1.40;1.02;;;20.40;48.70;;;;;;6166951;28;20089;-72
2021/12/21 02:32:45;;;;;;;1.00;0.90;;;20.40;48.60;;;;;;6136062;28;20648;-72
2021/12/21 02:35:46;;;;;;;1.25;1.00;;;20.40;48.60;;;;;;6162849;28;20027;-72
2021/12/21 02:38:46;;;;;;;1.17;0.90;;;20.40;48.60;;;;;;6164859;28;20143;-72
2021/12/21 02:41:48;;;;;;;1.08;0.80;;;20.40;48.60;;;;;;6149098;28;20479;-72
2021/12/21 02:44:53;;;;;;;1.02;0.70;;;20.40;48.60;;;;;;6153520;28;20094;-72
2021/12/21 02:47:54;;;;;;;;;;;20.40;48.60;;;;;;6169149;28;20038;-73
2021/12/21 02:50:54;;;;;;;2.08;1.20;;;20.40;48.60;;;;;;6168022;28;19981;-72
2021/12/21 02:53:55;;;;;;;1.45;0.95;;;20.40;48.60;;;;;;6167846;28;20034;-72
2021/12/21 02:56:55;;;;;;;1.20;0.73;;;20.40;48.70;;;;;;6168287;28;20480;-72
2021/12/21 02:59:56;;;;;;;1.83;1.15;;;20.40;48.70;;;;;;6168522;28;20854;-72
2021/12/21 03:02:57;;;;;;;0.77;0.70;;;20.40;48.70;;;;;;6168338;28;20033;-72
2021/12/21 03:05:59;;;;;;;1.15;0.90;;;20.40;48.60;;;;;;6167929;28;20070;-72
2021/12/21 03:08:59;;;;;;;0.98;0.80;;;20.40;48.70;;;;;;6167814;28;20018;-72
2021/12/21 03:15:12;;;;;;;1.90;1.10;;;20.40;48.60;;;;;;6167896;28;20058;-72
2021/12/21 03:18:13;;;;;;;1.70;1.05;;;20.40;48.70;;;;;;6167932;28;20066;-73
2021/12/21 03:21:14;;;;;;;1.15;0.82;;;20.40;48.70;;;;;;6165807;28;20117;-73
2021/12/21 03:24:14;;;;;;;2.25;0.98;;;20.40;48.70;;;;;;6167934;28;20035;-72
2021/12/21 03:27:15;;;;;;;1.38;1.00;;;20.40;48.70;;;;;;6167915;28;20033;-73
2021/12/21 03:30:16;;;;;;;1.10;0.82;;;20.40;48.70;;;;;;6165156;28;20430;-72
2021/12/21 03:33:16;;;;;;;0.82;0.65;;;20.40;48.60;;;;;;6138810;28;20070;-73
2021/12/21 03:36:18;;;;;;;1.77;0.90;;;20.40;48.80;;;;;;6172945;28;20232;-72
2021/12/21 03:39:20;;;;;;;1.83;1.00;;;20.40;48.60;;;;;;6172479;28;20035;-72
2021/12/21 03:42:21;;;;;;;1.17;0.70;;;20.40;48.60;;;;;;6149263;28;20031;-72
2021/12/21 03:45:21;;;;;;;1.65;0.90;;;20.40;48.70;;;;;;6164386;28;20038;-72
2021/12/21 03:48:22;;;;;;;1.98;0.93;;;20.40;48.60;;;;;;6172462;28;20042;-73
2021/12/21 03:51:22;;;;;;;0.98;0.80;;;20.40;48.70;;;;;;6187046;28;20049;-72
2021/12/21 03:54:23;;;;;;;1.95;1.08;;;20.40;48.60;;;;;;6172327;28;20034;-72
2021/12/21 03:57:24;;;;;;;1.33;0.60;;;20.40;48.60;;;;;;6171619;28;20063;-72
2021/12/21 04:00:36;;;;;;;1.80;0.93;;;20.40;48.70;;;;;;6171873;28;20022;-72
2021/12/21 04:03:37;;;;;;;0.98;0.80;;;20.40;48.60;;;;;;6171722;28;20110;-72
2021/12/21 04:06:38;;;;;;;1.20;0.85;;;20.40;48.70;;;;;;6171966;28;20019;-72
2021/12/21 04:09:39;;;;;;;1.08;0.90;;;20.30;48.50;;;;;;6171997;28;20114;-72
2021/12/21 04:12:39;;;;;;;0.98;0.80;;;20.40;48.70;;;;;;6171912;28;20045;-72
2021/12/21 04:15:43;;;;;;;1.15;0.90;;;20.30;48.50;;;;;;6167906;28;20038;-72
2021/12/21 04:18:43;;;;;;;1.45;1.02;;;20.30;48.60;;;;;;6171462;28;20029;-72
2021/12/21 04:21:44;;;;;;;1.00;0.75;;;20.40;48.60;;;;;;6172074;28;20030;-73
2021/12/21 04:24:45;;;;;;;0.73;0.65;;;20.40;48.60;;;;;;6171574;28;20073;-73
2021/12/21 04:27:45;;;;;;;1.00;0.80;;;20.40;48.60;;;;;;6171698;28;20026;-73
2021/12/21 04:30:46;;;;;;;1.58;0.88;;;20.30;48.50;;;;;;6160386;28;20614;-73
2021/12/21 04:33:47;;;;;;;1.00;0.73;;;20.30;48.50;;;;;;6143012;28;20023;-72
2021/12/21 04:36:47;;;;;;;0.98;0.60;;;20.30;48.60;;;;;;6171108;28;20038;-73
2021/12/21 04:40:07;;;;;;;1.17;0.70;;;20.30;48.60;;;;;;6168058;28;20023;-72
2021/12/21 04:43:08;;;;;;;1.10;0.70;;;20.30;48.50;;;;;;6162902;28;20027;-72
2021/12/21 04:46:09;;;;;;;1.13;0.90;;;20.30;48.40;;;;;;6170129;28;20359;-72
2021/12/21 04:49:10;;;;;;;1.15;0.93;;;20.30;49.20;;;;;;6170715;28;20415;-72
2021/12/21 04:52:11;;;;;;;2.13;0.90;;;20.30;48.50;;;;;;6170917;28;20033;-72
2021/12/21 04:55:11;;;;;;;0.70;0.63;;;20.30;48.60;;;;;;6169988;28;20494;-72
2021/12/21 04:58:12;;;;;;;1.65;0.90;;;20.30;48.60;;;;;;6170430;28;20432;-72
2021/12/21 05:01:12;;;;;;;1.38;0.82;;;20.30;48.50;;;;;;6171105;28;20085;-72
2021/12/21 05:04:13;;;;;;;1.73;0.90;;;20.30;48.60;;;;;;6158328;28;20043;-72
2021/12/21 05:07:17;;;;;;;1.30;0.80;;;20.30;48.60;;;;;;6146609;28;20027;-73
2021/12/21 05:10:19;;;;;;;2.00;0.90;;;20.30;48.60;;;;;;6163643;28;20030;-72
2021/12/21 05:13:22;;;;;;;0.90;0.77;;;20.30;48.60;;;;;;6170791;28;20273;-72
2021/12/21 05:16:23;;;;;;;1.10;0.90;;;20.30;48.60;;;;;;6169834;28;20085;-72
2021/12/21 05:19:23;;;;;;;1.35;0.90;;;20.30;48.50;;;;;;6170302;28;20364;-72
2021/12/21 05:22:24;;;;;;;1.73;0.82;;;20.30;48.60;;;;;;6170542;28;20051;-72
2021/12/21 05:25:25;;;;;;;1.00;0.77;;;20.30;48.50;;;;;;6169958;28;20081;-73
2021/12/21 05:28:25;;;;;;;1.40;0.85;;;20.30;48.50;;;;;;6169896;28;20541;-72
2021/12/21 05:31:26;;;;;;;1.70;0.90;;;20.30;48.50;;;;;;6148119;28;20158;-73
2021/12/21 05:34:27;;;;;;;1.30;0.80;;;20.30;48.50;;;;;;6152189;28;20061;-73
2021/12/21 05:37:28;;;;;;;0.95;0.70;;;20.30;48.50;;;;;;6170175;28;20035;-73
2021/12/21 05:40:35;;;;;;;1.38;1.00;;;20.30;48.50;;;;;;6161163;28;20491;-72
2021/12/21 05:43:35;;;;;;;1.13;0.80;;;20.30;48.50;;;;;;6145673;29;20513;-73
2021/12/21 05:46:36;;;;;;;0.90;0.80;;;20.40;48.60;;;;;;6168600;28;20137;-73
2021/12/21 05:49:36;;;;;;;1.27;0.90;;;20.40;48.50;;;;;;6169707;28;20038;-72
2021/12/21 05:52:37;;;;;;;1.33;0.90;;;20.30;48.50;;;;;;6165691;28;20041;-73
2021/12/21 05:55:39;;;;;;;1.00;0.90;;;20.30;48.40;;;;;;6168668;28;20034;-72
2021/12/21 05:58:40;;;;;;;0.93;0.73;;;20.40;48.60;;;;;;6168945;28;20137;-72
2021/12/21 06:01:41;;;;;;;1.27;0.60;;;20.30;48.40;;;;;;6153777;28;20046;-72
2021/12/21 06:04:41;;;;;;;1.35;0.85;;;20.30;48.50;;;;;;6153883;28;20049;-72
2021/12/21 06:07:42;;;;;;;0.90;0.70;;;20.40;48.60;;;;;;6169510;28;20386;-72
2021/12/21 06:10:43;;;;;;;1.00;0.70;;;20.40;48.60;;;;;;6168926;28;20502;-73
2021/12/21 06:14:17;;;;;;;1.27;0.77;;;20.40;48.60;;;;;;6169468;28;20470;-72
2021/12/21 06:26:57;;;;;;;2.17;1.10;;;20.40;47.90;;;;;;6167883;28;20037;-73
2021/12/21 06:29:58;;;;;;;4.53;1.00;;;20.40;48.00;;;;;;6165949;28;20037;-72
2021/12/21 06:32:59;;;;;;;3.80;1.20;;;20.40;48.00;;;;;;6147191;28;20122;-73
2021/12/21 06:36:01;;;;;;;3.20;1.27;;;20.40;47.90;;;;;;6151650;28;20066;-74
2021/12/21 06:39:05;;;;;;;1.55;0.82;;;20.40;47.90;;;;;;6146848;28;20023;-72
2021/12/21 06:42:06;;;;;;;2.13;0.80;;;20.40;47.80;;;;;;6167199;28;20038;-73
2021/12/21 06:45:15;;;;;;;6.25;1.20;;;20.50;47.80;;;;;;6166409;28;20521;-72
2021/12/21 06:51:54;;;;;;;4.70;1.08;;;20.50;47.70;;;;;;6166739;28;20126;-72
2021/12/21 06:54:54;;;;;;;2.53;1.20;;;20.50;47.80;;;;;;6166406;28;20034;-72
2021/12/21 06:57:55;;;;;;;2.67;0.80;;;20.50;47.90;;;;;;6166530;28;20058;-72
2021/12/21 07:00:56;;;;;;;1.98;0.70;;;20.50;48.00;;;;;;6145531;28;20060;-72
2021/12/21 07:03:58;;;;;;;2.78;1.23;;;20.50;48.00;;;;;;6153209;28;20039;-72
2021/12/21 07:06:59;;;;;;;2.03;1.02;;;20.50;48.00;;;;;;6156803;28;20462;-72
2021/12/21 07:10:03;;;;;;;1.77;0.90;;;20.50;48.20;;;;;;6165467;28;20026;-72
2021/12/21 07:19:44;;;;;;;1.80;1.02;;;20.50;48.30;;;;;;6168718;28;20558;-72
2021/12/21 07:22:44;;;;;;;3.95;1.00;;;20.50;48.40;;;;;;6168210;28;20038;-72
2021/12/21 07:25:45;;;;;;;4.32;0.85;;;20.50;48.40;;;;;;6168542;28;20390;-73
2021/12/21 07:28:45;;;;;;;4.15;1.00;;;20.50;48.50;;;;;;6167693;28;20046;-72
2021/12/21 07:31:46;;;;;;;2.53;1.00;;;20.50;48.50;;;;;;6150531;28;20038;-73
2021/12/21 07:34:47;;;;;;;1.40;0.82;;;20.50;48.50;;;;;;6168509;28;20030;-73
2021/12/21 07:37:48;;;;;;;1.42;0.80;;;20.50;48.50;;;;;;6168628;28;20031;-72
2021/12/21 07:40:48;;;;;;;1.83;0.98;;;20.50;48.50;;;;;;6168002;28;20085;-72
2021/12/21 07:43:49;;;;;;;2.75;0.90;;;20.50;48.50;;;;;;6165217;28;20039;-73
2021/12/21 07:46:49;;;;;;;2.58;1.02;;;20.50;48.50;;;;;;6168565;28;20035;-72
2021/12/21 07:49:50;;;;;;;0.73;0.60;;;20.50;48.50;;;;;;6168321;28;20062;-72
2021/12/21 07:52:54;;;;;;;1.10;0.52;;;20.50;48.50;;;;;;6168101;28;20045;-72
2021/12/21 07:55:57;;;;;;;1.88;0.93;;;20.50;48.50;;;;;;6168062;28;20081;-72
2021/12/21 07:58:58;;;;;;;1.35;0.70;;;20.50;48.50;;;;;;6167780;28;20105;-72
2021/12/21 08:01:59;;;;;;;4.90;0.73;;;20.50;48.50;;;;;;6168547;28;20553;-73
2021/12/21 08:05:05;;;;;;;1.77;0.90;;;20.50;48.60;;;;;;6148143;28;20039;-72
2021/12/21 08:08:11;;;;;;;2.00;0.95;;;20.50;48.50;;;;;;6139937;28;20031;-73
2021/12/21 08:14:36;;;;;;;1.92;1.00;;;20.50;48.60;;;;;;6148859;28;20039;-72
2021/12/21 08:17:36;;;;;;;1.17;0.75;;;20.60;48.70;;;;;;6167475;28;20138;-72
2021/12/21 08:20:37;;;;;;;1.05;0.70;;;20.50;48.60;;;;;;6170784;28;20031;-73
2021/12/21 08:23:38;;;;;;;1.20;0.80;;;20.60;48.70;;;;;;6171989;28;20034;-72
2021/12/21 08:26:38;;;;;;;1.75;0.90;;;20.60;48.70;;;;;;6172000;28;20034;-72
2021/12/21 08:29:39;;;;;;;1.52;0.90;;;20.50;48.60;;;;;;6171459;28;20556;-72
2021/12/21 08:32:39;;;;;;;1.25;0.90;;;20.60;48.70;;;;;;6151210;28;20062;-72
2021/12/21 08:35:40;;;;;;;1.23;0.80;;;20.60;48.70;;;;;;6161240;28;20031;-72
2021/12/21 08:38:43;;;;;;;1.95;0.77;;;20.50;48.60;;;;;;6168456;28;20027;-72
2021/12/21 08:41:45;;;;;;;1.25;0.75;;;20.60;48.70;;;;;;6172771;28;20023;-73
2021/12/21 08:44:47;;;;;;;1.35;0.80;;;20.50;48.60;;;;;;6171969;28;20042;-72
2021/12/21 08:47:48;;;;;;;3.15;0.77;;;20.50;48.60;;;;;;6137900;28;20016;-72
2021/12/21 08:50:50;;;;;;;0.75;0.70;;;20.60;48.70;;;;;;6160717;28;20085;-73
2021/12/21 08:53:51;;;;;;;0.70;0.70;;;20.50;48.70;;;;;;6170690;28;20027;-72
2021/12/21 08:56:51;;;;;;;0.90;0.80;;;20.60;48.80;;;;;;6171944;28;20073;-73
2021/12/21 08:59:52;;;;;;;0.90;0.60;;;20.60;48.80;;;;;;6171546;28;20053;-72
2021/12/21 09:02:53;;;;;;;1.83;1.17;;;20.50;48.80;;;;;;6169269;28;20042;-72
2021/12/21 09:05:53;;;;;;;3.00;1.38;;;20.50;48.80;;;;;;6147843;28;20070;-73
2021/12/21 09:08:54;;;;;;;2.45;1.33;;;20.40;47.80;;;;;;6157475;28;20301;-72
2021/12/21 09:11:54;;;;;;;5.30;2.15;;;20.40;47.70;;;;;;6148661;28;20390;-72
2021/12/21 09:14:55;;;;;;;5.35;2.30;;;20.40;47.00;;;;;;6165569;28;20027;-72
2021/12/21 09:17:57;;;;;;;4.03;2.42;;;20.40;47.00;;;;;;6171159;28;20097;-72
2021/12/21 09:20:57;;;;;;;5.15;2.67;;;20.40;46.70;;;;;;6168556;28;20035;-72
2021/12/21 09:23:58;;;;;;;7.22;3.05;;;20.30;46.40;;;;;;6171098;28;20121;-72
2021/12/21 09:26:59;;;;;;;8.30;3.45;;;20.30;45.80;;;;;;6171476;28;20027;-72
2021/12/21 09:30:00;;;;;;;7.60;3.17;;;20.30;45.90;;;;;;6171185;28;20453;-72
2021/12/21 09:33:00;;;;;;;7.40;3.65;;;20.30;45.80;;;;;;6146274;28;20027;-72
2021/12/21 09:36:01;;;;;;;9.57;3.53;;;20.30;44.80;;;;;;6170893;28;20034;-72
2021/12/21 09:39:02;;;;;;;6.70;2.95;;;20.30;44.40;;;;;;6170212;28;20027;-73
2021/12/21 09:42:03;;;;;;;10.18;4.38;;;20.30;45.00;;;;;;6151925;28;20426;-72
2021/12/21 09:45:04;;;;;;;8.88;3.83;;;20.30;43.90;;;;;;6171604;28;20495;-72
2021/12/21 09:48:06;;;;;;;8.52;4.25;;;20.20;44.00;;;;;;6171269;28;20039;-72
2021/12/21 09:51:07;;;;;;;9.35;4.32;;;20.30;42.70;;;;;;6167400;28;20030;-72
2021/12/21 09:54:08;;;;;;;8.27;3.60;;;20.20;42.20;;;;;;6170979;28;20332;-72
2021/12/21 09:57:09;;;;;;;7.40;3.35;;;20.20;43.30;;;;;;6169971;28;20265;-73
2021/12/21 10:00:12;;;;;;;10.63;4.65;;;20.20;43.40;;;;;;6170662;28;20526;-73
2021/12/21 10:03:14;;;;;;;10.00;4.03;;;20.20;42.00;;;;;;6166384;28;20031;-72
2021/12/21 10:06:15;;;;;;;11.35;4.13;;;20.20;40.90;;;;;;6148185;28;20126;-72
2021/12/21 10:09:20;;;;;;;6.43;3.33;;;20.20;41.10;;;;;;6168022;28;20030;-73
2021/12/21 10:12:30;;;;;;;6.90;3.58;;;20.20;41.70;;;;;;6154801;28;20069;-72
2021/12/21 10:15:37;;;;;;;13.48;3.47;;;20.20;41.70;;;;;;6162652;28;20447;-72
2021/12/21 10:18:41;;;;;;;12.32;3.13;;;20.20;41.20;;;;;;6146591;28;20113;-73
2021/12/21 10:21:45;;;;;;;8.20;3.13;;;20.20;41.50;;;;;;6169673;28;20449;-72
2021/12/21 10:24:49;;;;;;;13.73;3.35;;;20.20;41.70;;;;;;6168213;28;20034;-72
2021/12/21 10:27:49;;;;;;;7.13;2.80;;;20.20;41.90;;;;;;6164233;28;20027;-72
2021/12/21 10:30:53;;;;;;;6.32;2.55;;;20.20;42.00;;;;;;6154077;28;20028;-72
2021/12/21 10:33:56;;;;;;;9.55;2.63;;;20.20;42.20;;;;;;6156443;28;20379;-72
2021/12/21 10:36:57;;;;;;;5.78;2.53;;;20.20;42.40;;;;;;6168319;28;20185;-73
2021/12/21 10:40:26;;;;;;;6.30;2.30;;;20.20;42.60;;;;;;6166210;28;20022;-73
2021/12/21 10:43:28;;;;;;;6.05;2.53;;;20.20;42.80;;;;;;6156577;28;20035;-72
2021/12/21 10:46:35;;;;;;;8.00;2.45;;;20.30;43.10;;;;;;6162522;28;20439;-72
2021/12/21 10:49:37;;;;;;;3.75;2.17;;;20.30;43.20;;;;;;6168081;28;20170;-73
2021/12/21 10:52:40;;;;;;;4.70;1.98;;;20.30;43.40;;;;;;6168011;28;20031;-72
2021/12/21 10:55:41;;;;;;;4.43;2.03;;;20.30;43.70;;;;;;6167884;28;20100;-73
2021/12/21 10:58:43;;;;;;;3.35;2.05;;;20.30;43.90;;;;;;6165945;28;20054;-72
2021/12/21 11:01:44;;;;;;;5.72;2.03;;;20.30;44.00;;;;;;6145386;28;20066;-73
2021/12/21 11:04:52;;;;;;;3.55;1.80;;;20.30;44.10;;;;;;6147739;28;20061;-72
2021/12/21 11:07:56;;;;;;;3.25;1.52;;;20.30;44.20;;;;;;6146301;28;20061;-72
2021/12/21 11:10:59;;;;;;;2.83;1.75;;;20.30;44.40;;;;;;6162415;28;20054;-73
2021/12/21 11:14:03;;;;;;;4.32;1.80;;;20.30;44.50;;;;;;6170187;28;20057;-72
2021/12/21 11:17:05;;;;;;;3.25;1.77;;;20.30;44.60;;;;;;6168072;28;20027;-73
2021/12/21 11:20:08;;;;;;;2.85;1.75;;;20.30;44.70;;;;;;6164357;28;20026;-72
2021/12/21 11:23:12;;;;;;;4.18;1.75;;;20.30;44.70;;;;;;6157939;28;20089;-72
2021/12/21 11:26:13;;;;;;;3.80;1.70;;;20.30;44.80;;;;;;6156230;28;20308;-73
2021/12/21 11:29:19;;;;;;;6.28;1.42;;;20.30;44.90;;;;;;6159860;28;20394;-73
2021/12/21 11:32:20;;;;;;;;;;;20.30;45.00;;;;;;6153304;28;20100;-73
2021/12/21 11:38:26;;;;;;;4.78;1.67;;;20.30;45.10;;;;;;6167756;28;20398;-73
2021/12/21 11:41:27;;;;;;;7.55;1.60;;;20.40;45.30;;;;;;6152604;28;20027;-72
2021/12/21 11:44:50;;;;;;;3.15;1.50;;;20.30;45.20;;;;;;6151941;28;20038;-73
2021/12/21 11:48:11;;;;;;;3.20;1.50;;;20.30;45.30;;;;;;6157591;28;20050;-73
2021/12/21 11:51:13;;;;;;;2.30;1.25;;;20.30;45.30;;;;;;6159497;28;20046;-72
2021/12/21 11:54:19;;;;;;;10.70;1.60;;;20.30;45.30;;;;;;6162841;28;20114;-72
2021/12/21 11:57:34;;;;;;;1.65;1.20;;;20.40;45.40;;;;;;6152666;28;20051;-72
2021/12/21 12:00:35;;;;;;;5.68;1.60;;;20.40;45.40;;;;;;6163756;28;20089;-73
2021/12/21 12:03:38;;;;;;;2.22;1.30;;;20.40;45.50;;;;;;6164847;28;20031;-72
2021/12/21 12:06:45;;;;;;;4.78;1.65;;;20.40;45.60;;;;;;6148101;28;20110;-72
2021/12/21 12:09:46;;;;;;;5.03;1.20;;;20.40;45.60;;;;;;6159141;28;20149;-72
2021/12/21 12:12:47;;;;;;;1.95;1.20;;;20.40;45.70;;;;;;6153240;28;20039;-72
2021/12/21 12:15:53;;;;;;;3.78;1.65;;;20.40;45.80;;;;;;6166999;28;20054;-72
2021/12/21 12:18:54;;;;;;;2.60;1.45;;;20.40;45.80;;;;;;6162799;28;20386;-73
2021/12/21 12:21:57;;;;;;;3.40;1.40;;;20.40;45.80;;;;;;6170148;28;20050;-72
2021/12/21 12:24:59;;;;;;;2.90;1.25;;;20.40;45.90;;;;;;6170767;28;20094;-72
2021/12/21 12:28:01;;;;;;;4.50;1.77;;;20.40;45.90;;;;;;6172060;28;20015;-71
2021/12/21 12:31:02;;;;;;;5.63;1.50;;;20.40;45.90;;;;;;6152531;28;20553;-73
2021/12/21 12:34:03;;;;;;;4.65;1.67;;;20.40;46.00;;;;;;6163712;28;20498;-72
2021/12/21 12:37:33;;;;;;;8.63;3.08;;;20.40;46.00;;;;;;6153609;28;20081;-72
2021/12/21 12:40:35;;;;;;;20.30;3.63;;;20.30;46.00;;;;;;6152357;28;20137;-72
2021/12/21 12:43:41;;;;;;;29.88;5.18;;;20.30;45.10;;;;;;6150630;28;20487;-72
2021/12/21 12:46:55;;;;;;;36.85;6.05;;;20.30;44.60;;;;;;6147816;28;20509;-72
2021/12/21 12:49:55;;;;;;;42.28;5.00;;;20.30;44.80;;;;;;6170224;28;20027;-72
2021/12/21 12:53:02;;;;;;;30.17;4.75;;;20.30;44.90;;;;;;6169110;28;20041;-72
2021/12/21 12:56:03;;;;;;;36.42;6.15;;;20.30;45.20;;;;;;6152721;28;20035;-73
2021/12/21 12:59:05;;;;;;;27.10;5.50;;;20.30;45.60;;;;;;6164691;28;20039;-72
2021/12/21 13:02:10;;;;;;;18.85;4.82;;;20.30;45.00;;;;;;6170851;28;20027;-73
2021/12/21 13:05:10;;;;;;;23.15;4.82;;;20.30;44.10;;;;;;6159713;28;20039;-72
2021/12/21 13:08:16;;;;;;;21.85;4.75;;;20.30;44.10;;;;;;6158358;28;20049;-72
2021/12/21 13:11:24;;;;;;;12.90;4.53;;;20.30;43.70;;;;;;6165103;28;20039;-72
2021/12/21 13:14:25;;;;;;;17.25;4.70;;;20.30;42.10;;;;;;6166500;28;20383;-73
2021/12/21 13:17:25;;;;;;;11.30;3.88;;;20.30;42.90;;;;;;6147090;28;20107;-73
2021/12/21 13:20:26;;;;;;;13.07;4.00;;;20.30;42.90;;;;;;6160446;28;20104;-72
2021/12/21 13:23:29;;;;;;;14.48;3.78;;;20.30;43.30;;;;;;6162105;28;20081;-72
2021/12/21 13:26:48;;;;;;;8.82;3.50;;;20.30;43.40;;;;;;6158756;28;20038;-72
2021/12/21 13:29:49;;;;;;;7.22;3.15;;;20.30;43.60;;;;;;6165935;28;20077;-72
2021/12/21 13:32:56;;;;;;;11.07;3.22;;;20.30;43.70;;;;;;6155489;28;20023;-72
2021/12/21 13:36:03;;;;;;;9.48;2.78;;;20.30;43.90;;;;;;6170504;28;20023;-72
2021/12/21 13:39:21;;;;;;;8.98;2.72;;;20.30;44.10;;;;;;6168387;28;20066;-72
2021/12/21 13:42:24;;;;;;;7.78;3.05;;;20.30;44.20;;;;;;6165479;28;20039;-72
2021/12/21 13:45:25;;;;;;;5.18;2.63;;;20.30;44.30;;;;;;6154499;28;20039;-72
2021/12/21 13:48:26;;;;;;;7.80;2.88;;;20.30;44.40;;;;;;6157941;28;20649;-71
2021/12/21 13:51:26;;;;;;;14.25;2.83;;;20.30;44.50;;;;;;6150824;28;20031;-72
2021/12/21 13:54:28;;;;;;;10.15;3.42;;;20.40;44.70;;;;;;6117908;29;20040;-72
2021/12/21 13:57:28;;;;;;;37.60;5.32;;;20.30;44.80;;;;;;6118455;29;20499;-72
2021/12/21 14:00:30;;;;;;;36.67;5.10;;;20.30;44.80;;;;;;6118630;29;20131;-72
2021/12/21 14:03:44;;;;;;;40.22;4.95;;;20.30;44.20;;;;;;6115665;29;20234;-72
2021/12/21 14:06:45;;;;;;;39.38;5.30;;;20.30;43.80;;;;;;6115758;29;20043;-72
2021/12/21 14:09:46;;;;;;;35.28;4.80;;;20.30;43.70;;;;;;6114725;29;20534;-72
2021/12/21 14:12:59;;;;;;;31.45;4.72;;;20.30;44.00;;;;;;6104850;29;20109;-72
2021/12/21 14:16:08;;;;;;;13.90;3.92;;;20.30;44.20;;;;;;6111939;29;20039;-72
2021/12/21 14:19:17;;;;;;;25.42;4.55;;;20.30;44.30;;;;;;6101083;29;20099;-72
2021/12/21 14:22:21;;;;;;;34.75;4.28;;;20.30;44.50;;;;;;6115793;29;20083;-72
2021/12/21 14:25:23;;;;;;;19.50;4.60;;;20.30;44.60;;;;;;6140883;28;20039;-72
2021/12/21 14:28:24;;;;;;;30.55;4.10;;;20.30;44.60;;;;;;6158533;28;20097;-72
2021/12/21 14:31:38;;;;;;;20.90;3.95;;;20.30;44.70;;;;;;6156455;28;20027;-72
2021/12/21 14:34:45;;;;;;;10.70;3.30;;;20.30;44.80;;;;;;6169249;28;20058;-72
2021/12/21 14:37:46;;;;;;;14.02;3.78;;;20.40;44.90;;;;;;6154390;28;20102;-72
2021/12/21 14:40:50;;;;;;;11.55;3.05;;;20.40;45.10;;;;;;6165410;28;20027;-72
2021/12/21 14:44:03;;;;;;;17.63;3.33;;;20.40;45.10;;;;;;6150552;28;20133;-72
2021/12/21 14:47:10;;;;;;;14.23;2.85;;;20.40;45.20;;;;;;6166638;28;20046;-72
2021/12/21 14:50:13;;;;;;;13.48;3.22;;;20.30;45.30;;;;;;6152722;28;20050;-72
2021/12/21 14:53:28;;;;;;;10.75;3.20;;;20.30;45.30;;;;;;6165147;28;20391;-72
2021/12/21 14:56:31;;;;;;;21.50;4.00;;;20.30;45.10;;;;;;6168847;28;20078;-73
2021/12/21 14:59:35;;;;;;;10.27;4.15;;;20.20;44.50;;;;;;6156925;28;20062;-72
2021/12/21 15:05:38;;;;;;;8.93;3.42;;;20.20;44.20;;;;;;6159406;28;20045;-72
2021/12/21 15:08:38;;;;;;;11.25;4.15;;;20.20;44.10;;;;;;6160608;28;20027;-73
2021/12/21 15:11:55;;;;;;;9.50;3.78;;;20.20;41.90;;;;;;6146895;28;20435;-72
2021/12/21 15:14:55;;;;;;;7.57;3.50;;;20.20;41.10;;;;;;6165914;28;20039;-72
2021/12/21 15:17:56;;;;;;;6.25;2.80;;;20.20;41.10;;;;;;6167307;28;20035;-72
2021/12/21 15:20:57;;;;;;;5.70;2.83;;;20.20;41.50;;;;;;6167942;28;20038;-72
2021/12/21 15:24:00;;;;;;;5.55;2.60;;;20.20;41.80;;;;;;6168233;28;20045;-72
2021/12/21 15:27:00;;;;;;;5.68;2.63;;;20.20;41.90;;;;;;6149203;28;20030;-72
2021/12/21 15:30:02;;;;;;;8.60;2.72;;;20.20;42.10;;;;;;6170295;28;20513;-72
2021/12/21 15:33:03;;;;;;;5.25;2.67;;;20.20;42.90;;;;;;6163715;28;20102;-72
2021/12/21 15:36:03;;;;;;;7.50;2.72;;;20.20;42.80;;;;;;6169431;28;20326;-72
2021/12/21 15:39:05;;;;;;;7.50;3.42;;;20.20;42.90;;;;;;6172772;28;20042;-72
2021/12/21 15:42:14;;;;;;;6.93;3.70;;;20.20;41.60;;;;;;6155956;28;20585;-72
2021/12/21 15:45:15;;;;;;;6.47;3.50;;;20.20;41.90;;;;;;6144631;28;20526;-71
2021/12/21 15:48:15;;;;;;;8.85;3.08;;;20.20;41.40;;;;;;6160191;28;20054;-73
2021/12/21 15:51:18;;;;;;;5.75;2.97;;;20.20;41.80;;;;;;6155068;28;20437;-73
2021/12/21 15:54:18;;;;;;;5.45;3.33;;;20.10;40.50;;;;;;6170845;28;20505;-72
2021/12/21 15:57:19;;;;;;;8.15;3.13;;;20.20;40.40;;;;;;6131101;28;20126;-72
2021/12/21 16:00:20;;;;;;;5.47;2.47;;;20.20;40.70;;;;;;6163796;28;20228;-73
2021/12/21 16:03:21;;;;;;;8.15;2.90;;;20.20;40.40;;;;;;6158743;28;20081;-72
2021/12/21 16:06:21;;;;;;;3.97;2.60;;;20.20;40.40;;;;;;6151630;28;20037;-71
2021/12/21 16:09:22;;;;;;;5.85;2.72;;;20.20;40.20;;;;;;6168512;28;20102;-72
2021/12/21 16:12:23;;;;;;;8.63;2.20;;;20.20;40.40;;;;;;6152977;28;20031;-72
2021/12/21 16:15:24;;;;;;;6.82;2.30;;;20.20;40.60;;;;;;6169411;28;20058;-72
2021/12/21 16:18:25;;;;;;;4.05;2.10;;;20.20;40.90;;;;;;6155069;28;20031;-72
2021/12/21 16:21:26;;;;;;;3.85;1.70;;;20.20;41.80;;;;;;6166257;28;20441;-72
2021/12/21 16:24:27;;;;;;;4.38;2.03;;;20.20;41.20;;;;;;6174848;28;20035;-72
2021/12/21 16:27:27;;;;;;;3.90;1.90;;;20.20;41.50;;;;;;6159590;28;20415;-72
2021/12/21 16:30:45;;;;;;;4.13;2.20;;;20.20;41.80;;;;;;6162609;28;20019;-72
2021/12/21 16:33:47;;;;;;;4.38;2.30;;;20.20;41.40;;;;;;6171706;28;20034;-72
2021/12/21 16:36:48;;;;;;;4.53;1.60;;;20.20;41.40;;;;;;6151621;28;20031;-72
2021/12/21 16:39:48;;;;;;;3.67;2.17;;;20.20;41.60;;;;;;6172831;28;20054;-72